sensor_id;sensor_type;location;lat;lon;timestamp;P1;durP1;ratioP1;P2;durP2;ratioP2
70924;SDS011;58577;52.410;13.242;2023-01-15T00:01:50;2.22;;;1.70;;
70924;SDS011;58577;52.410;13.242;2023-01-15T00:04:35;4.22;;;1.92;;
70924;SDS011;58577;52.410;13.242;2023-01-15T00:07:21;2.13;;;1.50;;
70924;SDS011;58577;52.410;13.242;2023-01-15T00:10:07;2.38;;;1.80;;
70924;SDS011;58577;52.410;13.242;2023-01-15T00:12:54;3.90;;;1.80;;
70924;SDS011;58577;52.410;13.242;2023-01-15T00:15:39;3.40;;;1.58;;
70924;SDS011;58577;52.410;13.242;2023-01-15T00:18:25;1.67;;;1.55;;
70924;SDS011;58577;52.410;13.242;2023-01-15T00:21:11;1.73;;;1.50;;
70924;SDS011;58577;52.410;13.242;2023-01-15T00:23:58;1.65;;;1.40;;
70924;SDS011;58577;52.410;13.242;2023-01-15T00:27:02;1.65;;;1.27;;
70924;SDS011;58577;52.410;13.242;2023-01-15T00:30:08;3.10;;;1.98;;
70924;SDS011;58577;52.410;13.242;2023-01-15T00:32:56;1.48;;;1.38;;
70924;SDS011;58577;52.410;13.242;2023-01-15T00:35:43;3.20;;;1.83;;
70924;SDS011;58577;52.410;13.242;2023-01-15T00:38:29;1.38;;;1.38;;
70924;SDS011;58577;52.410;13.242;2023-01-15T00:41:16;4.07;;;1.48;;
70924;SDS011;58577;52.410;13.242;2023-01-15T00:44:02;2.22;;;1.30;;
70924;SDS011;58577;52.410;13.242;2023-01-15T00:46:48;1.70;;;1.60;;
70924;SDS011;58577;52.410;13.242;2023-01-15T00:49:34;1.98;;;1.38;;
70924;SDS011;58577;52.410;13.242;2023-01-15T00:52:20;1.40;;;1.30;;
70924;SDS011;58577;52.410;13.242;2023-01-15T00:55:06;2.22;;;1.17;;
70924;SDS011;58577;52.410;13.242;2023-01-15T00:57:53;1.55;;;1.45;;
70924;SDS011;58577;52.410;13.242;2023-01-15T01:00:39;1.33;;;1.23;;
70924;SDS011;58577;52.410;13.242;2023-01-15T01:03:25;1.10;;;1.02;;
70924;SDS011;58577;52.410;13.242;2023-01-15T01:06:11;1.55;;;1.20;;
70924;SDS011;58577;52.410;13.242;2023-01-15T01:08:57;1.45;;;1.20;;
70924;SDS011;58577;52.410;13.242;2023-01-15T01:11:43;1.45;;;1.25;;
70924;SDS011;58577;52.410;13.242;2023-01-15T01:14:29;1.98;;;1.27;;
70924;SDS011;58577;52.410;13.242;2023-01-15T01:17:15;3.75;;;1.40;;
70924;SDS011;58577;52.410;13.242;2023-01-15T01:20:01;1.10;;;1.00;;
70924;SDS011;58577;52.410;13.242;2023-01-15T01:22:48;1.35;;;1.25;;
70924;SDS011;58577;52.410;13.242;2023-01-15T01:25:34;2.38;;;1.00;;
70924;SDS011;58577;52.410;13.242;2023-01-15T01:28:20;1.20;;;1.08;;
70924;SDS011;58577;52.410;13.242;2023-01-15T01:31:07;1.52;;;1.40;;
70924;SDS011;58577;52.410;13.242;2023-01-15T01:33:55;1.02;;;1.02;;
70924;SDS011;58577;52.410;13.242;2023-01-15T01:36:43;0.90;;;0.90;;
70924;SDS011;58577;52.410;13.242;2023-01-15T01:39:29;1.35;;;1.17;;
70924;SDS011;58577;52.410;13.242;2023-01-15T01:42:16;1.23;;;1.00;;
70924;SDS011;58577;52.410;13.242;2023-01-15T01:45:05;1.08;;;1.08;;
70924;SDS011;58577;52.410;13.242;2023-01-15T01:47:57;3.13;;;1.38;;
70924;SDS011;58577;52.410;13.242;2023-01-15T01:50:47;1.67;;;1.30;;
70924;SDS011;58577;52.410;13.242;2023-01-15T01:53:34;1.23;;;1.10;;
70924;SDS011;58577;52.410;13.242;2023-01-15T01:56:20;1.23;;;1.13;;
70924;SDS011;58577;52.410;13.242;2023-01-15T01:59:07;1.60;;;1.08;;
70924;SDS011;58577;52.410;13.242;2023-01-15T02:01:54;2.42;;;1.35;;
70924;SDS011;58577;52.410;13.242;2023-01-15T02:04:40;2.85;;;1.30;;
70924;SDS011;58577;52.410;13.242;2023-01-15T02:07:26;1.13;;;1.13;;
70924;SDS011;58577;52.410;13.242;2023-01-15T02:10:13;1.50;;;1.40;;
70924;SDS011;58577;52.410;13.242;2023-01-15T02:13:14;0.95;;;0.95;;
70924;SDS011;58577;52.410;13.242;2023-01-15T02:22:28;1.17;;;1.08;;
70924;SDS011;58577;52.410;13.242;2023-01-15T02:25:31;1.02;;;1.00;;
70924;SDS011;58577;52.410;13.242;2023-01-15T02:28:39;1.65;;;1.30;;
70924;SDS011;58577;52.410;13.242;2023-01-15T02:31:31;1.10;;;1.00;;
70924;SDS011;58577;52.410;13.242;2023-01-15T02:34:25;1.10;;;1.10;;
70924;SDS011;58577;52.410;13.242;2023-01-15T02:37:17;1.23;;;1.15;;
70924;SDS011;58577;52.410;13.242;2023-01-15T02:40:09;1.13;;;1.05;;
70924;SDS011;58577;52.410;13.242;2023-01-15T02:42:58;1.13;;;0.90;;
70924;SDS011;58577;52.410;13.242;2023-01-15T02:45:46;1.10;;;1.00;;
70924;SDS011;58577;52.410;13.242;2023-01-15T02:48:36;0.88;;;0.88;;
70924;SDS011;58577;52.410;13.242;2023-01-15T02:51:26;1.30;;;1.10;;
70924;SDS011;58577;52.410;13.242;2023-01-15T02:54:16;1.05;;;1.05;;
70924;SDS011;58577;52.410;13.242;2023-01-15T02:57:04;1.23;;;0.90;;
70924;SDS011;58577;52.410;13.242;2023-01-15T02:59:52;0.98;;;0.98;;
70924;SDS011;58577;52.410;13.242;2023-01-15T03:02:43;0.95;;;0.95;;
70924;SDS011;58577;52.410;13.242;2023-01-15T03:05:44;1.05;;;1.05;;
70924;SDS011;58577;52.410;13.242;2023-01-15T03:08:38;1.00;;;1.00;;
70924;SDS011;58577;52.410;13.242;2023-01-15T03:11:26;1.08;;;1.08;;
70924;SDS011;58577;52.410;13.242;2023-01-15T03:14:30;1.00;;;1.00;;
70924;SDS011;58577;52.410;13.242;2023-01-15T03:17:28;1.25;;;0.90;;
70924;SDS011;58577;52.410;13.242;2023-01-15T03:20:24;1.00;;;1.00;;
70924;SDS011;58577;52.410;13.242;2023-01-15T03:23:12;2.47;;;1.20;;
70924;SDS011;58577;52.410;13.242;2023-01-15T03:26:02;1.58;;;0.90;;
70924;SDS011;58577;52.410;13.242;2023-01-15T03:28:48;1.85;;;1.20;;
70924;SDS011;58577;52.410;13.242;2023-01-15T03:31:35;1.30;;;1.20;;
70924;SDS011;58577;52.410;13.242;2023-01-15T03:34:22;1.63;;;1.05;;
70924;SDS011;58577;52.410;13.242;2023-01-15T03:37:09;1.35;;;1.10;;
70924;SDS011;58577;52.410;13.242;2023-01-15T03:40:05;1.73;;;1.20;;
70924;SDS011;58577;52.410;13.242;2023-01-15T03:42:55;1.67;;;1.50;;
70924;SDS011;58577;52.410;13.242;2023-01-15T03:46:06;1.30;;;1.20;;
70924;SDS011;58577;52.410;13.242;2023-01-15T03:49:17;3.63;;;1.52;;
70924;SDS011;58577;52.410;13.242;2023-01-15T03:55:35;2.08;;;1.50;;
70924;SDS011;58577;52.410;13.242;2023-01-15T04:01:28;2.45;;;1.40;;
70924;SDS011;58577;52.410;13.242;2023-01-15T04:04:19;2.58;;;1.35;;
70924;SDS011;58577;52.410;13.242;2023-01-15T04:07:05;1.40;;;1.30;;
70924;SDS011;58577;52.410;13.242;2023-01-15T04:09:53;1.45;;;1.40;;
70924;SDS011;58577;52.410;13.242;2023-01-15T04:12:39;2.28;;;1.13;;
70924;SDS011;58577;52.410;13.242;2023-01-15T04:15:28;1.45;;;0.85;;
70924;SDS011;58577;52.410;13.242;2023-01-15T04:18:14;1.63;;;0.98;;
70924;SDS011;58577;52.410;13.242;2023-01-15T04:21:01;0.90;;;0.88;;
70924;SDS011;58577;52.410;13.242;2023-01-15T04:23:48;2.42;;;1.30;;
70924;SDS011;58577;52.410;13.242;2023-01-15T04:26:34;1.48;;;1.00;;
70924;SDS011;58577;52.410;13.242;2023-01-15T04:29:19;3.50;;;1.08;;
70924;SDS011;58577;52.410;13.242;2023-01-15T04:32:05;1.23;;;1.05;;
70924;SDS011;58577;52.410;13.242;2023-01-15T04:34:52;1.95;;;0.77;;
70924;SDS011;58577;52.410;13.242;2023-01-15T04:37:38;2.53;;;0.70;;
70924;SDS011;58577;52.410;13.242;2023-01-15T04:40:24;0.65;;;0.65;;
70924;SDS011;58577;52.410;13.242;2023-01-15T04:43:29;0.75;;;0.70;;
70924;SDS011;58577;52.410;13.242;2023-01-15T04:49:20;2.50;;;0.82;;
70924;SDS011;58577;52.410;13.242;2023-01-15T04:52:06;0.50;;;0.50;;
70924;SDS011;58577;52.410;13.242;2023-01-15T04:54:53;0.70;;;0.60;;
70924;SDS011;58577;52.410;13.242;2023-01-15T04:57:39;1.08;;;1.00;;
70924;SDS011;58577;52.410;13.242;2023-01-15T05:00:25;2.83;;;1.13;;
70924;SDS011;58577;52.410;13.242;2023-01-15T05:03:11;1.70;;;1.05;;
70924;SDS011;58577;52.410;13.242;2023-01-15T05:06:00;1.95;;;0.88;;
70924;SDS011;58577;52.410;13.242;2023-01-15T05:08:47;3.63;;;1.27;;
70924;SDS011;58577;52.410;13.242;2023-01-15T05:11:36;0.80;;;0.80;;
70924;SDS011;58577;52.410;13.242;2023-01-15T05:14:23;1.63;;;0.60;;
70924;SDS011;58577;52.410;13.242;2023-01-15T05:17:08;1.25;;;1.00;;
70924;SDS011;58577;52.410;13.242;2023-01-15T05:19:54;2.55;;;0.90;;
70924;SDS011;58577;52.410;13.242;2023-01-15T05:22:40;1.65;;;0.88;;
70924;SDS011;58577;52.410;13.242;2023-01-15T05:25:26;1.45;;;0.90;;
70924;SDS011;58577;52.410;13.242;2023-01-15T05:28:12;2.05;;;0.90;;
70924;SDS011;58577;52.410;13.242;2023-01-15T05:30:57;2.03;;;1.00;;
70924;SDS011;58577;52.410;13.242;2023-01-15T05:33:44;2.78;;;0.88;;
70924;SDS011;58577;52.410;13.242;2023-01-15T05:36:31;2.42;;;0.98;;
70924;SDS011;58577;52.410;13.242;2023-01-15T05:39:17;2.45;;;1.20;;
70924;SDS011;58577;52.410;13.242;2023-01-15T05:42:03;3.92;;;1.00;;
70924;SDS011;58577;52.410;13.242;2023-01-15T05:44:49;0.70;;;0.70;;
70924;SDS011;58577;52.410;13.242;2023-01-15T05:47:35;0.68;;;0.68;;
70924;SDS011;58577;52.410;13.242;2023-01-15T05:50:20;0.90;;;0.90;;
70924;SDS011;58577;52.410;13.242;2023-01-15T05:53:06;1.92;;;0.95;;
70924;SDS011;58577;52.410;13.242;2023-01-15T05:55:52;1.80;;;1.00;;
70924;SDS011;58577;52.410;13.242;2023-01-15T05:58:38;2.42;;;0.90;;
70924;SDS011;58577;52.410;13.242;2023-01-15T06:01:24;0.65;;;0.65;;
70924;SDS011;58577;52.410;13.242;2023-01-15T06:04:10;0.50;;;0.50;;
70924;SDS011;58577;52.410;13.242;2023-01-15T06:06:58;1.65;;;1.02;;
70924;SDS011;58577;52.410;13.242;2023-01-15T06:09:44;2.10;;;1.30;;
70924;SDS011;58577;52.410;13.242;2023-01-15T06:12:31;1.58;;;1.10;;
70924;SDS011;58577;52.410;13.242;2023-01-15T06:15:17;2.20;;;1.00;;
70924;SDS011;58577;52.410;13.242;2023-01-15T06:18:03;1.55;;;0.90;;
70924;SDS011;58577;52.410;13.242;2023-01-15T06:20:48;1.55;;;0.73;;
70924;SDS011;58577;52.410;13.242;2023-01-15T06:23:35;0.88;;;0.88;;
70924;SDS011;58577;52.410;13.242;2023-01-15T06:26:21;0.73;;;0.73;;
70924;SDS011;58577;52.410;13.242;2023-01-15T06:29:07;1.25;;;1.15;;
70924;SDS011;58577;52.410;13.242;2023-01-15T06:31:53;1.10;;;1.00;;
70924;SDS011;58577;52.410;13.242;2023-01-15T06:34:39;3.10;;;1.20;;
70924;SDS011;58577;52.410;13.242;2023-01-15T06:37:27;0.95;;;0.85;;
70924;SDS011;58577;52.410;13.242;2023-01-15T06:40:13;4.18;;;1.02;;
70924;SDS011;58577;52.410;13.242;2023-01-15T06:42:59;2.17;;;1.00;;
70924;SDS011;58577;52.410;13.242;2023-01-15T06:46:04;2.28;;;0.93;;
70924;SDS011;58577;52.410;13.242;2023-01-15T06:49:09;2.20;;;1.10;;
70924;SDS011;58577;52.410;13.242;2023-01-15T06:51:55;3.08;;;1.38;;
70924;SDS011;58577;52.410;13.242;2023-01-15T06:54:41;2.85;;;1.23;;
70924;SDS011;58577;52.410;13.242;2023-01-15T06:57:27;4.35;;;1.08;;
70924;SDS011;58577;52.410;13.242;2023-01-15T07:00:13;1.10;;;1.00;;
70924;SDS011;58577;52.410;13.242;2023-01-15T07:03:03;3.13;;;1.13;;
70924;SDS011;58577;52.410;13.242;2023-01-15T07:05:49;1.92;;;1.05;;
70924;SDS011;58577;52.410;13.242;2023-01-15T07:08:35;1.23;;;0.90;;
70924;SDS011;58577;52.410;13.242;2023-01-15T07:11:21;3.03;;;1.52;;
70924;SDS011;58577;52.410;13.242;2023-01-15T07:14:08;0.80;;;0.80;;
70924;SDS011;58577;52.410;13.242;2023-01-15T07:16:54;2.50;;;1.15;;
70924;SDS011;58577;52.410;13.242;2023-01-15T07:19:40;1.35;;;1.00;;
70924;SDS011;58577;52.410;13.242;2023-01-15T07:22:27;1.60;;;1.10;;
70924;SDS011;58577;52.410;13.242;2023-01-15T07:25:12;1.30;;;1.20;;
70924;SDS011;58577;52.410;13.242;2023-01-15T07:27:58;3.45;;;1.40;;
70924;SDS011;58577;52.410;13.242;2023-01-15T07:30:44;1.00;;;0.95;;
70924;SDS011;58577;52.410;13.242;2023-01-15T07:33:30;3.95;;;1.60;;
70924;SDS011;58577;52.410;13.242;2023-01-15T07:36:16;1.05;;;0.98;;
70924;SDS011;58577;52.410;13.242;2023-01-15T07:39:03;0.95;;;0.95;;
70924;SDS011;58577;52.410;13.242;2023-01-15T07:41:49;1.52;;;1.40;;
70924;SDS011;58577;52.410;13.242;2023-01-15T07:44:54;1.27;;;1.13;;
70924;SDS011;58577;52.410;13.242;2023-01-15T07:47:59;2.17;;;1.27;;
70924;SDS011;58577;52.410;13.242;2023-01-15T07:51:03;1.63;;;1.20;;
70924;SDS011;58577;52.410;13.242;2023-01-15T07:53:48;5.10;;;1.60;;
70924;SDS011;58577;52.410;13.242;2023-01-15T07:56:34;1.20;;;1.10;;
70924;SDS011;58577;52.410;13.242;2023-01-15T07:59:20;2.17;;;1.00;;
70924;SDS011;58577;52.410;13.242;2023-01-15T08:02:06;1.23;;;1.13;;
70924;SDS011;58577;52.410;13.242;2023-01-15T08:04:52;2.28;;;1.27;;
70924;SDS011;58577;52.410;13.242;2023-01-15T08:07:38;0.90;;;0.90;;
70924;SDS011;58577;52.410;13.242;2023-01-15T08:10:25;1.45;;;0.98;;
70924;SDS011;58577;52.410;13.242;2023-01-15T08:13:11;3.85;;;1.70;;
70924;SDS011;58577;52.410;13.242;2023-01-15T08:16:15;2.05;;;1.05;;
70924;SDS011;58577;52.410;13.242;2023-01-15T08:19:01;2.28;;;1.10;;
70924;SDS011;58577;52.410;13.242;2023-01-15T08:21:48;2.15;;;0.70;;
70924;SDS011;58577;52.410;13.242;2023-01-15T08:24:34;1.08;;;0.80;;
70924;SDS011;58577;52.410;13.242;2023-01-15T08:27:19;2.85;;;1.55;;
70924;SDS011;58577;52.410;13.242;2023-01-15T08:30:06;1.27;;;1.10;;
70924;SDS011;58577;52.410;13.242;2023-01-15T08:32:57;3.10;;;1.30;;
70924;SDS011;58577;52.410;13.242;2023-01-15T08:38:29;1.25;;;1.20;;
70924;SDS011;58577;52.410;13.242;2023-01-15T08:41:15;2.28;;;1.27;;
70924;SDS011;58577;52.410;13.242;2023-01-15T08:44:01;2.25;;;1.10;;
70924;SDS011;58577;52.410;13.242;2023-01-15T08:46:48;1.80;;;1.10;;
70924;SDS011;58577;52.410;13.242;2023-01-15T08:49:40;1.58;;;1.48;;
70924;SDS011;58577;52.410;13.242;2023-01-15T08:52:31;3.75;;;1.60;;
70924;SDS011;58577;52.410;13.242;2023-01-15T08:55:17;1.58;;;1.27;;
70924;SDS011;58577;52.410;13.242;2023-01-15T08:58:03;0.93;;;0.93;;
70924;SDS011;58577;52.410;13.242;2023-01-15T09:00:49;2.38;;;1.33;;
70924;SDS011;58577;52.410;13.242;2023-01-15T09:03:38;3.97;;;1.40;;
70924;SDS011;58577;52.410;13.242;2023-01-15T09:06:24;1.38;;;0.88;;
70924;SDS011;58577;52.410;13.242;2023-01-15T09:09:10;2.50;;;1.13;;
70924;SDS011;58577;52.410;13.242;2023-01-15T09:12:05;2.10;;;1.20;;
70924;SDS011;58577;52.410;13.242;2023-01-15T09:14:51;3.13;;;1.33;;
70924;SDS011;58577;52.410;13.242;2023-01-15T09:17:43;1.90;;;1.20;;
70924;SDS011;58577;52.410;13.242;2023-01-15T09:20:30;2.08;;;1.05;;
70924;SDS011;58577;52.410;13.242;2023-01-15T09:23:15;1.05;;;0.98;;
70924;SDS011;58577;52.410;13.242;2023-01-15T09:26:04;1.30;;;1.20;;
70924;SDS011;58577;52.410;13.242;2023-01-15T09:29:12;1.10;;;1.00;;
70924;SDS011;58577;52.410;13.242;2023-01-15T09:31:57;1.05;;;1.00;;
70924;SDS011;58577;52.410;13.242;2023-01-15T09:34:43;1.95;;;1.40;;
70924;SDS011;58577;52.410;13.242;2023-01-15T09:37:29;2.92;;;1.65;;
70924;SDS011;58577;52.410;13.242;2023-01-15T09:40:58;2.80;;;1.70;;
70924;SDS011;58577;52.410;13.242;2023-01-15T09:43:53;1.67;;;1.58;;
70924;SDS011;58577;52.410;13.242;2023-01-15T09:47:12;2.15;;;1.85;;
70924;SDS011;58577;52.410;13.242;2023-01-15T09:50:12;2.25;;;1.20;;
70924;SDS011;58577;52.410;13.242;2023-01-15T09:56:20;1.67;;;1.33;;
70924;SDS011;58577;52.410;13.242;2023-01-15T10:02:24;2.70;;;1.60;;
70924;SDS011;58577;52.410;13.242;2023-01-15T10:08:05;1.70;;;1.58;;
70924;SDS011;58577;52.410;13.242;2023-01-15T10:14:05;2.88;;;1.85;;
70924;SDS011;58577;52.410;13.242;2023-01-15T10:16:55;4.88;;;2.85;;
70924;SDS011;58577;52.410;13.242;2023-01-15T10:19:41;3.78;;;1.88;;
70924;SDS011;58577;52.410;13.242;2023-01-15T10:23:06;2.80;;;2.00;;
70924;SDS011;58577;52.410;13.242;2023-01-15T10:25:49;2.22;;;1.60;;
70924;SDS011;58577;52.410;13.242;2023-01-15T10:31:50;3.55;;;1.67;;
70924;SDS011;58577;52.410;13.242;2023-01-15T10:41:24;2.47;;;1.73;;
70924;SDS011;58577;52.410;13.242;2023-01-15T10:47:33;2.45;;;1.77;;
70924;SDS011;58577;52.410;13.242;2023-01-15T10:50:25;3.38;;;1.95;;
70924;SDS011;58577;52.410;13.242;2023-01-15T10:53:26;3.20;;;1.70;;
70924;SDS011;58577;52.410;13.242;2023-01-15T10:56:20;3.25;;;2.00;;
70924;SDS011;58577;52.410;13.242;2023-01-15T10:59:12;2.25;;;1.90;;
70924;SDS011;58577;52.410;13.242;2023-01-15T11:02:06;2.50;;;2.00;;
70924;SDS011;58577;52.410;13.242;2023-01-15T11:05:11;3.72;;;1.70;;
70924;SDS011;58577;52.410;13.242;2023-01-15T11:08:04;2.20;;;2.00;;
70924;SDS011;58577;52.410;13.242;2023-01-15T11:10:52;1.90;;;1.80;;
70924;SDS011;58577;52.410;13.242;2023-01-15T11:13:39;3.35;;;1.95;;
70924;SDS011;58577;52.410;13.242;2023-01-15T11:16:54;1.98;;;1.88;;
70924;SDS011;58577;52.410;13.242;2023-01-15T11:19:52;2.63;;;1.88;;
70924;SDS011;58577;52.410;13.242;2023-01-15T11:22:39;4.15;;;2.33;;
70924;SDS011;58577;52.410;13.242;2023-01-15T11:25:29;3.75;;;2.17;;
70924;SDS011;58577;52.410;13.242;2023-01-15T11:28:17;3.20;;;2.05;;
70924;SDS011;58577;52.410;13.242;2023-01-15T11:31:15;2.17;;;2.03;;
70924;SDS011;58577;52.410;13.242;2023-01-15T11:34:02;2.10;;;1.67;;
70924;SDS011;58577;52.410;13.242;2023-01-15T11:37:00;2.13;;;1.65;;
70924;SDS011;58577;52.410;13.242;2023-01-15T11:39:50;4.57;;;1.80;;
70924;SDS011;58577;52.410;13.242;2023-01-15T11:42:44;1.52;;;1.42;;
70924;SDS011;58577;52.410;13.242;2023-01-15T11:45:59;2.45;;;1.30;;
70924;SDS011;58577;52.410;13.242;2023-01-15T11:49:06;2.50;;;2.20;;
70924;SDS011;58577;52.410;13.242;2023-01-15T11:52:21;1.45;;;1.35;;
70924;SDS011;58577;52.410;13.242;2023-01-15T11:55:37;2.22;;;1.40;;
70924;SDS011;58577;52.410;13.242;2023-01-15T11:58:23;3.78;;;1.88;;
70924;SDS011;58577;52.410;13.242;2023-01-15T12:07:21;1.98;;;1.23;;
70924;SDS011;58577;52.410;13.242;2023-01-15T12:10:57;4.20;;;1.65;;
70924;SDS011;58577;52.410;13.242;2023-01-15T12:14:23;1.85;;;1.38;;
70924;SDS011;58577;52.410;13.242;2023-01-15T12:17:47;7.03;;;2.67;;
70924;SDS011;58577;52.410;13.242;2023-01-15T12:36:18;3.47;;;1.10;;
70924;SDS011;58577;52.410;13.242;2023-01-15T12:39:16;2.45;;;1.45;;
70924;SDS011;58577;52.410;13.242;2023-01-15T12:42:06;2.70;;;1.25;;
70924;SDS011;58577;52.410;13.242;2023-01-15T12:45:15;2.55;;;1.52;;
70924;SDS011;58577;52.410;13.242;2023-01-15T12:51:04;2.63;;;1.40;;
70924;SDS011;58577;52.410;13.242;2023-01-15T12:53:52;3.35;;;1.40;;
70924;SDS011;58577;52.410;13.242;2023-01-15T12:59:46;1.15;;;1.13;;
70924;SDS011;58577;52.410;13.242;2023-01-15T13:02:46;3.65;;;1.55;;
70924;SDS011;58577;52.410;13.242;2023-01-15T13:08:57;3.50;;;1.50;;
70924;SDS011;58577;52.410;13.242;2023-01-15T13:11:45;2.78;;;1.50;;
70924;SDS011;58577;52.410;13.242;2023-01-15T13:14:31;3.53;;;1.35;;
70924;SDS011;58577;52.410;13.242;2023-01-15T13:17:22;1.63;;;1.10;;
70924;SDS011;58577;52.410;13.242;2023-01-15T13:33:14;1.95;;;1.55;;
70924;SDS011;58577;52.410;13.242;2023-01-15T13:39:05;2.72;;;1.60;;
70924;SDS011;58577;52.410;13.242;2023-01-15T13:41:55;4.18;;;1.35;;
70924;SDS011;58577;52.410;13.242;2023-01-15T13:45:31;2.42;;;1.48;;
70924;SDS011;58577;52.410;13.242;2023-01-15T13:51:23;1.63;;;1.17;;
70924;SDS011;58577;52.410;13.242;2023-01-15T13:54:16;2.47;;;1.50;;
70924;SDS011;58577;52.410;13.242;2023-01-15T13:57:07;2.65;;;1.50;;
70924;SDS011;58577;52.410;13.242;2023-01-15T14:03:32;3.50;;;1.60;;
70924;SDS011;58577;52.410;13.242;2023-01-15T14:06:20;4.35;;;1.60;;
70924;SDS011;58577;52.410;13.242;2023-01-15T14:09:48;3.40;;;1.25;;
70924;SDS011;58577;52.410;13.242;2023-01-15T14:15:25;4.55;;;1.25;;
70924;SDS011;58577;52.410;13.242;2023-01-15T14:24:05;1.80;;;1.60;;
70924;SDS011;58577;52.410;13.242;2023-01-15T14:27:02;1.85;;;1.60;;
70924;SDS011;58577;52.410;13.242;2023-01-15T14:36:16;3.72;;;1.17;;
70924;SDS011;58577;52.410;13.242;2023-01-15T14:39:04;2.45;;;1.23;;
70924;SDS011;58577;52.410;13.242;2023-01-15T14:42:08;6.20;;;1.58;;
70924;SDS011;58577;52.410;13.242;2023-01-15T14:51:13;2.63;;;1.52;;
70924;SDS011;58577;52.410;13.242;2023-01-15T14:54:06;1.48;;;1.38;;
70924;SDS011;58577;52.410;13.242;2023-01-15T14:56:57;3.58;;;1.80;;
70924;SDS011;58577;52.410;13.242;2023-01-15T14:59:53;2.03;;;1.58;;
70924;SDS011;58577;52.410;13.242;2023-01-15T15:02:45;1.73;;;1.20;;
70924;SDS011;58577;52.410;13.242;2023-01-15T15:05:33;1.17;;;0.80;;
70924;SDS011;58577;52.410;13.242;2023-01-15T15:08:28;2.05;;;1.05;;
70924;SDS011;58577;52.410;13.242;2023-01-15T15:11:19;1.20;;;1.10;;
70924;SDS011;58577;52.410;13.242;2023-01-15T15:14:29;2.63;;;1.23;;
70924;SDS011;58577;52.410;13.242;2023-01-15T15:17:20;3.58;;;1.15;;
70924;SDS011;58577;52.410;13.242;2023-01-15T15:26:18;1.80;;;1.50;;
70924;SDS011;58577;52.410;13.242;2023-01-15T15:31:57;2.08;;;1.45;;
70924;SDS011;58577;52.410;13.242;2023-01-15T15:34:49;2.08;;;1.48;;
70924;SDS011;58577;52.410;13.242;2023-01-15T15:37:46;3.20;;;1.60;;
70924;SDS011;58577;52.410;13.242;2023-01-15T15:40:38;1.55;;;1.45;;
70924;SDS011;58577;52.410;13.242;2023-01-15T15:43:49;2.80;;;1.95;;
70924;SDS011;58577;52.410;13.242;2023-01-15T15:47:01;2.05;;;1.55;;
70924;SDS011;58577;52.410;13.242;2023-01-15T15:50:27;5.97;;;1.67;;
70924;SDS011;58577;52.410;13.242;2023-01-15T15:53:16;7.20;;;2.38;;
70924;SDS011;58577;52.410;13.242;2023-01-15T15:56:07;6.07;;;2.28;;
70924;SDS011;58577;52.410;13.242;2023-01-15T15:58:56;5.80;;;2.53;;
70924;SDS011;58577;52.410;13.242;2023-01-15T16:01:43;1.92;;;1.60;;
70924;SDS011;58577;52.410;13.242;2023-01-15T16:04:33;1.83;;;1.63;;
70924;SDS011;58577;52.410;13.242;2023-01-15T16:07:28;2.10;;;1.60;;
70924;SDS011;58577;52.410;13.242;2023-01-15T16:13:18;2.00;;;1.60;;
70924;SDS011;58577;52.410;13.242;2023-01-15T16:16:19;2.70;;;1.60;;
70924;SDS011;58577;52.410;13.242;2023-01-15T16:19:05;2.15;;;1.33;;
70924;SDS011;58577;52.410;13.242;2023-01-15T16:21:55;1.55;;;1.45;;
70924;SDS011;58577;52.410;13.242;2023-01-15T16:24:51;3.15;;;1.60;;
70924;SDS011;58577;52.410;13.242;2023-01-15T16:27:38;3.53;;;2.45;;
70924;SDS011;58577;52.410;13.242;2023-01-15T16:30:24;2.28;;;1.75;;
70924;SDS011;58577;52.410;13.242;2023-01-15T16:33:13;8.48;;;4.70;;
70924;SDS011;58577;52.410;13.242;2023-01-15T16:36:01;4.35;;;2.00;;
70924;SDS011;58577;52.410;13.242;2023-01-15T16:38:55;3.15;;;1.88;;
70924;SDS011;58577;52.410;13.242;2023-01-15T16:41:46;4.10;;;1.58;;
70924;SDS011;58577;52.410;13.242;2023-01-15T16:44:38;4.82;;;3.08;;
70924;SDS011;58577;52.410;13.242;2023-01-15T16:47:41;6.13;;;2.60;;
70924;SDS011;58577;52.410;13.242;2023-01-15T16:50:45;8.57;;;4.72;;
70924;SDS011;58577;52.410;13.242;2023-01-15T16:56:24;14.90;;;6.45;;
70924;SDS011;58577;52.410;13.242;2023-01-15T17:02:14;3.97;;;2.25;;
70924;SDS011;58577;52.410;13.242;2023-01-15T17:05:12;4.22;;;1.73;;
70924;SDS011;58577;52.410;13.242;2023-01-15T17:08:16;2.78;;;2.05;;
70924;SDS011;58577;52.410;13.242;2023-01-15T17:11:18;4.50;;;2.20;;
70924;SDS011;58577;52.410;13.242;2023-01-15T17:14:20;3.80;;;2.47;;
70924;SDS011;58577;52.410;13.242;2023-01-15T17:17:22;2.05;;;1.73;;
70924;SDS011;58577;52.410;13.242;2023-01-15T17:20:11;1.85;;;1.75;;
70924;SDS011;58577;52.410;13.242;2023-01-15T17:22:58;10.73;;;5.10;;
70924;SDS011;58577;52.410;13.242;2023-01-15T17:25:44;3.53;;;2.00;;
70924;SDS011;58577;52.410;13.242;2023-01-15T17:28:31;3.55;;;1.88;;
70924;SDS011;58577;52.410;13.242;2023-01-15T17:31:36;3.33;;;2.35;;
70924;SDS011;58577;52.410;13.242;2023-01-15T17:34:23;3.13;;;2.17;;
70924;SDS011;58577;52.410;13.242;2023-01-15T17:43:59;4.50;;;2.25;;
70924;SDS011;58577;52.410;13.242;2023-01-15T17:46:47;2.38;;;2.03;;
70924;SDS011;58577;52.410;13.242;2023-01-15T17:49:33;3.20;;;1.88;;
70924;SDS011;58577;52.410;13.242;2023-01-15T17:52:20;4.00;;;2.10;;
70924;SDS011;58577;52.410;13.242;2023-01-15T17:55:08;5.88;;;2.92;;
70924;SDS011;58577;52.410;13.242;2023-01-15T17:58:14;1.92;;;1.27;;
70924;SDS011;58577;52.410;13.242;2023-01-15T18:01:19;4.55;;;1.98;;
70924;SDS011;58577;52.410;13.242;2023-01-15T18:04:30;4.80;;;1.83;;
70924;SDS011;58577;52.410;13.242;2023-01-15T18:07:58;4.00;;;1.77;;
70924;SDS011;58577;52.410;13.242;2023-01-15T18:10:48;3.08;;;2.10;;
70924;SDS011;58577;52.410;13.242;2023-01-15T18:13:33;3.00;;;1.70;;
70924;SDS011;58577;52.410;13.242;2023-01-15T18:16:19;4.88;;;1.83;;
70924;SDS011;58577;52.410;13.242;2023-01-15T18:19:05;7.18;;;2.00;;
70924;SDS011;58577;52.410;13.242;2023-01-15T18:21:51;4.88;;;1.75;;
70924;SDS011;58577;52.410;13.242;2023-01-15T18:24:38;4.30;;;1.90;;
70924;SDS011;58577;52.410;13.242;2023-01-15T18:27:24;2.85;;;1.60;;
70924;SDS011;58577;52.410;13.242;2023-01-15T18:30:14;3.63;;;1.75;;
70924;SDS011;58577;52.410;13.242;2023-01-15T18:33:01;7.30;;;2.42;;
70924;SDS011;58577;52.410;13.242;2023-01-15T18:35:46;3.78;;;1.60;;
70924;SDS011;58577;52.410;13.242;2023-01-15T18:38:33;5.68;;;1.90;;
70924;SDS011;58577;52.410;13.242;2023-01-15T18:41:22;2.20;;;1.60;;
70924;SDS011;58577;52.410;13.242;2023-01-15T18:44:29;5.82;;;2.30;;
70924;SDS011;58577;52.410;13.242;2023-01-15T18:47:36;8.77;;;2.17;;
70924;SDS011;58577;52.410;13.242;2023-01-15T18:50:30;4.57;;;1.98;;
70924;SDS011;58577;52.410;13.242;2023-01-15T18:53:15;4.03;;;2.00;;
70924;SDS011;58577;52.410;13.242;2023-01-15T18:56:02;4.53;;;2.00;;
70924;SDS011;58577;52.410;13.242;2023-01-15T18:58:49;5.68;;;1.70;;
70924;SDS011;58577;52.410;13.242;2023-01-15T19:01:35;8.38;;;2.10;;
70924;SDS011;58577;52.410;13.242;2023-01-15T19:04:21;6.55;;;1.90;;
70924;SDS011;58577;52.410;13.242;2023-01-15T19:07:06;2.10;;;1.90;;
70924;SDS011;58577;52.410;13.242;2023-01-15T19:09:54;5.47;;;2.20;;
70924;SDS011;58577;52.410;13.242;2023-01-15T19:12:40;6.20;;;2.40;;
70924;SDS011;58577;52.410;13.242;2023-01-15T19:15:28;4.43;;;2.60;;
70924;SDS011;58577;52.410;13.242;2023-01-15T19:18:32;4.00;;;2.40;;
70924;SDS011;58577;52.410;13.242;2023-01-15T19:21:27;4.35;;;2.60;;